Aviation Digital Data Service (ADDS)

Output produced by TAFs form (2343 UTC 18 July 2018)
found at http://www.aviationweather.gov/adds/tafs/
 
RJFF 182330Z VRB02KT 9000 NSC 30/22 Q1011 RMK A2985
TAF RJFF 182306Z 1900/2006 32012KT 9999 FEW035 
     BECMG 1910/1912 14004KT 
     BECMG 2000/2003 02006KT